Time;durP1;ratioP1;P1;durP2;ratioP2;P2;SDS_P1;SDS_P2;PMS_P1;PMS_P2;Temp;Humidity;BMP_temperature;BMP_pressure;BME280_temperature;BME280_humidity;BME280_pressure;Samples;Min_cycle;Max_cycle;Signal;HPM_P1;HPM_P2
2023/07/02 00:01:45;;;;;;;3.47;0.57;;;;;;;13.33;100.00;99190.94;7391166;19;20022;-78
2023/07/02 00:04:15;;;;;;;0.57;0.57;;;;;;;14.24;100.00;99188.88;7392131;19;20110;-78
2023/07/02 00:06:43;;;;;;;9.65;1.35;;;;;;;14.18;100.00;99193.75;7391861;19;20450;-78
2023/07/02 00:09:12;;;;;;;1.20;0.60;;;;;;;13.60;100.00;99201.28;7391556;19;20107;-78
2023/07/02 00:11:40;;;;;;;1.95;0.82;;;;;;;13.37;100.00;99197.03;7391909;19;20032;-77
2023/07/02 00:14:07;;;;;;;0.30;0.15;;;;;;;13.39;100.00;99196.50;7391200;19;20015;-77
2023/07/02 00:16:35;;;;;;;3.53;1.50;;;;;;;13.41;100.00;99196.75;7393673;19;20011;-77
2023/07/02 00:19:01;;;;;;;6.75;1.00;;;;;;;13.49;100.00;99184.53;7390827;19;20017;-78
2023/07/02 00:21:28;;;;;;;2.45;0.50;;;;;;;13.52;100.00;99196.75;7392127;19;20022;-78
2023/07/02 00:23:57;;;;;;;4.97;0.45;;;;;;;13.47;100.00;99198.28;7391055;19;20018;-77
2023/07/02 00:26:25;;;;;;;0.40;0.10;;;;;;;13.40;100.00;99198.03;7389514;19;20039;-78
2023/07/02 00:28:52;;;;;;;1.45;0.57;;;;;;;13.76;100.00;99194.13;7392239;19;20027;-77
2023/07/02 00:31:19;;;;;;;6.88;0.90;;;;;;;13.78;100.00;99193.63;7390204;19;20521;-77
2023/07/02 00:33:45;;;;;;;1.08;0.47;;;;;;;13.79;100.00;99186.75;7391537;19;20109;-77
2023/07/02 00:36:14;;;;;;;2.55;0.93;;;;;;;14.16;100.00;99184.31;7391398;19;20434;-77
2023/07/02 00:38:48;;;;;;;3.72;1.45;;;;;;;14.41;100.00;99186.00;7388459;19;20021;-78
2023/07/02 00:41:14;;;;;;;1.40;0.55;;;;;;;13.53;100.00;99187.84;7387866;19;20018;-77
2023/07/02 00:43:44;;;;;;;0.90;0.55;;;;;;;13.43;100.00;99181.00;7387220;19;20039;-77
2023/07/02 00:46:19;;;;;;;1.92;1.02;;;;;;;12.95;100.00;99189.63;7387218;19;20025;-78
2023/07/02 00:48:47;;;;;;;4.07;0.75;;;;;;;13.24;100.00;99180.00;7387404;19;20015;-77
2023/07/02 00:51:18;;;;;;;4.57;0.47;;;;;;;13.24;100.00;99177.22;7389514;19;20026;-78
2023/07/02 00:53:47;;;;;;;0.10;0.10;;;;;;;13.45;100.00;99180.47;7388324;19;20078;-77
2023/07/02 00:56:13;;;;;;;4.25;0.50;;;;;;;13.70;100.00;99173.81;7387371;19;20018;-77
2023/07/02 00:58:48;;;;;;;0.20;0.20;;;;;;;13.52;100.00;99172.34;7388165;19;20015;-77
2023/07/02 01:01:18;;;;;;;1.00;0.65;;;;;;;13.40;100.00;99182.03;7388769;19;20011;-77
2023/07/02 01:04:01;;;;;;;5.53;0.70;;;;;;;13.19;100.00;99175.16;7386443;19;20027;-77
2023/07/02 01:06:40;;;;;;;0.95;0.63;;;;;;;13.34;100.00;99181.25;7387440;19;20366;-77
2023/07/02 01:09:07;;;;;;;1.52;1.08;;;;;;;13.47;100.00;99184.28;7389821;19;20509;-77
2023/07/02 01:11:51;;;;;;;8.77;0.98;;;;;;;13.31;100.00;99185.09;7390264;19;20028;-78
2023/07/02 01:14:30;;;;;;;1.13;0.35;;;;;;;13.35;100.00;99182.03;7394453;19;20499;-77
2023/07/02 01:16:58;;;;;;;2.20;0.77;;;;;;;13.37;100.00;99188.63;7394739;19;20010;-77
2023/07/02 01:19:51;;;;;;;2.90;0.57;;;;;;;13.58;100.00;99187.06;7395621;19;20018;-77
2023/07/02 01:22:22;;;;;;;0.30;0.30;;;;;;;13.32;100.00;99186.59;7397916;19;20067;-77
2023/07/02 01:24:49;;;;;;;1.13;0.68;;;;;;;13.44;100.00;99184.56;7398213;19;20007;-77
2023/07/02 01:27:16;;;;;;;1.67;0.60;;;;;;;13.26;100.00;99188.66;7395323;19;20082;-77
2023/07/02 01:29:45;;;;;;;0.90;0.45;;;;;;;13.44;100.00;99190.16;7397436;19;20414;-78
2023/07/02 01:32:11;;;;;;;2.17;0.70;;;;;;;13.96;100.00;99196.63;7395574;19;20015;-78
2023/07/02 01:34:37;;;;;;;3.65;0.80;;;;;;;13.02;100.00;99199.56;7395512;19;20011;-77
2023/07/02 01:37:04;;;;;;;4.85;2.28;;;;;;;12.75;100.00;99201.09;7396942;19;20425;-77
2023/07/02 01:39:30;;;;;;;1.27;0.60;;;;;;;12.47;100.00;99207.88;7394426;19;20015;-78
2023/07/02 01:42:17;;;;;;;1.17;0.70;;;;;;;12.38;100.00;99211.66;7397472;19;20038;-77
2023/07/02 01:44:44;;;;;;;0.45;0.45;;;;;;;12.36;100.00;99213.44;7397982;19;20010;-77
2023/07/02 01:47:10;;;;;;;0.13;0.13;;;;;;;12.35;100.00;99209.09;7394281;19;20022;-77
2023/07/02 01:49:38;;;;;;;4.85;1.60;;;;;;;12.61;100.00;99215.25;7397172;19;20011;-78
2023/07/02 01:52:05;;;;;;;0.35;0.35;;;;;;;12.56;100.00;99213.97;7394628;19;20489;-77
2023/07/02 01:54:32;;;;;;;6.22;1.27;;;;;;;13.27;100.00;99215.34;7394846;19;20345;-77
2023/07/02 01:56:59;;;;;;;2.08;0.57;;;;;;;12.78;100.00;99225.19;7397110;19;20376;-77
2023/07/02 01:59:25;;;;;;;3.13;0.80;;;;;;;12.57;100.00;99220.34;7392033;19;20025;-77
2023/07/02 02:01:52;;;;;;;3.85;1.65;;;;;;;12.50;100.00;99212.44;7400760;19;20025;-77
2023/07/02 02:04:18;;;;;;;0.40;0.20;;;;;;;12.70;100.00;99226.19;7394713;19;20023;-77
2023/07/02 02:06:44;;;;;;;2.90;0.50;;;;;;;12.68;100.00;99211.97;7393661;19;20014;-77
2023/07/02 02:09:11;;;;;;;5.60;0.93;;;;;;;12.62;100.00;99216.78;7394140;19;20014;-78
2023/07/02 02:11:42;;;;;;;0.10;0.10;;;;;;;12.50;100.00;99209.66;7394172;19;20049;-77
2023/07/02 02:14:08;;;;;;;1.67;0.82;;;;;;;12.63;100.00;99212.72;7399157;19;20017;-77
2023/07/02 02:16:35;;;;;;;0.40;0.40;;;;;;;12.71;100.00;99220.09;7394704;19;20429;-77
2023/07/02 02:19:02;;;;;;;4.95;0.70;;;;;;;13.20;100.00;99210.25;7391594;19;20358;-78
2023/07/02 02:21:29;;;;;;;0.63;0.55;;;;;;;13.13;100.00;99210.78;7394142;19;20086;-77
2023/07/02 02:23:55;;;;;;;1.80;0.85;;;;;;;13.52;100.00;99208.69;7394335;19;20018;-77
2023/07/02 02:26:22;;;;;;;9.18;1.00;;;;;;;13.70;100.00;99213.00;7392801;19;20011;-78
2023/07/02 02:28:49;;;;;;;0.73;0.52;;;;;;;14.03;100.00;99210.09;7395415;19;20026;-77
2023/07/02 02:31:15;;;;;;;2.58;0.60;;;;;;;14.00;100.00;99207.53;7394145;19;20019;-77
2023/07/02 02:33:42;;;;;;;8.90;0.80;;;;;;;14.38;100.00;99210.19;7393632;19;20026;-77
2023/07/02 02:36:08;;;;;;;2.50;0.55;;;;;;;13.75;100.00;99215.03;7395205;19;20025;-77
2023/07/02 02:38:37;;;;;;;2.78;0.35;;;;;;;14.30;100.00;99208.47;7391513;19;20014;-78
2023/07/02 02:41:03;;;;;;;2.15;0.77;;;;;;;13.34;100.00;99209.22;7391039;19;20359;-78
2023/07/02 02:43:34;;;;;;;3.83;1.10;;;;;;;13.25;100.00;99219.94;7392766;19;20056;-77
2023/07/02 02:46:01;;;;;;;6.53;0.75;;;;;;;13.48;100.00;99219.38;7390044;19;20367;-77
2023/07/02 02:48:27;;;;;;;3.38;1.58;;;;;;;13.23;100.00;99226.00;7390375;19;20026;-77
2023/07/02 02:50:53;;;;;;;2.17;0.73;;;;;;;12.97;100.00;99230.31;7393115;19;20011;-77
2023/07/02 02:53:20;;;;;;;1.55;0.80;;;;;;;13.23;100.00;99226.00;7391661;19;21411;-77
2023/07/02 02:55:46;;;;;;;1.13;0.82;;;;;;;12.75;100.00;99236.63;7392370;19;20486;-77
2023/07/02 02:58:12;;;;;;;11.45;1.08;;;;;;;12.60;100.00;99236.09;7395468;19;20516;-77
2023/07/02 03:00:42;;;;;;;6.05;0.82;;;;;;;12.43;100.00;99232.50;7392927;19;20019;-77
2023/07/02 03:03:08;;;;;;;3.63;0.53;;;;;;;12.41;100.00;99232.22;7390648;19;20025;-77
2023/07/02 03:05:34;;;;;;;2.10;0.77;;;;;;;12.46;100.00;99234.25;7391075;19;20014;-77
2023/07/02 03:08:00;;;;;;;1.48;0.70;;;;;;;13.13;100.00;99244.31;7391984;19;20053;-77
2023/07/02 03:10:28;;;;;;;0.45;0.25;;;;;;;12.36;100.00;99244.13;7393727;19;20025;-77
2023/07/02 03:12:54;;;;;;;4.03;1.35;;;;;;;12.28;100.00;99243.84;7393126;19;20019;-77
2023/07/02 03:15:20;;;;;;;0.93;0.93;;;;;;;12.53;100.00;99244.97;7392285;19;20036;-77
2023/07/02 03:17:46;;;;;;;0.73;0.60;;;;;;;12.82;100.00;99231.28;7392845;19;20352;-77
2023/07/02 03:20:13;;;;;;;1.17;0.65;;;;;;;12.73;100.00;99230.78;7392900;19;20019;-77
2023/07/02 03:22:39;;;;;;;0.75;0.38;;;;;;;12.86;100.00;99231.06;7389687;19;20017;-77
2023/07/02 03:25:05;;;;;;;5.05;0.93;;;;;;;12.70;100.00;99229.75;7391288;19;20015;-77
2023/07/02 03:27:31;;;;;;;4.13;0.65;;;;;;;13.00;100.00;99235.63;7389826;19;20110;-77
2023/07/02 03:29:58;;;;;;;0.70;0.70;;;;;;;13.64;100.00;99226.97;7393028;19;20017;-77
2023/07/02 03:32:24;;;;;;;4.63;0.70;;;;;;;12.92;100.00;99226.25;7392010;19;20082;-77
2023/07/02 03:34:50;;;;;;;0.80;0.32;;;;;;;13.49;100.00;99231.34;7391241;19;20047;-77
2023/07/02 03:37:16;;;;;;;0.65;0.32;;;;;;;14.80;100.00;99234.16;7391326;19;20372;-77
2023/07/02 03:39:42;;;;;;;1.50;0.88;;;;;;;14.12;100.00;99226.59;7389545;19;20022;-77
2023/07/02 03:42:08;;;;;;;0.50;0.43;;;;;;;18.12;100.00;99212.97;7392751;19;20105;-77
2023/07/02 03:44:34;;;;;;;4.65;1.33;;;;;;;14.52;100.00;99222.38;7391915;19;20018;-78
2023/07/02 03:47:01;;;;;;;6.30;1.38;;;;;;;13.09;100.00;99227.03;7393565;19;20010;-77
2023/07/02 03:49:27;;;;;;;2.38;0.30;;;;;;;13.12;100.00;99231.63;7393511;19;20038;-77
2023/07/02 03:51:53;;;;;;;1.15;1.02;;;;;;;13.55;100.00;99224.47;7391370;19;20014;-77
2023/07/02 03:54:20;;;;;;;1.58;0.68;;;;;;;13.96;100.00;99229.44;7392182;19;20297;-77
2023/07/02 03:56:46;;;;;;;4.88;1.13;;;;;;;13.93;100.00;99225.63;7393445;19;20026;-77
2023/07/02 03:59:12;;;;;;;1.00;0.43;;;;;;;13.28;100.00;99227.28;7390989;19;20085;-77
2023/07/02 04:01:38;;;;;;;0.95;0.70;;;;;;;13.35;100.00;99233.13;7393400;19;20022;-77
2023/07/02 04:04:04;;;;;;;5.10;1.27;;;;;;;21.36;100.00;99219.53;7390406;19;20043;-77
2023/07/02 04:06:30;;;;;;;2.28;0.30;;;;;;;13.84;100.00;99225.19;7391746;19;20368;-78
2023/07/02 04:08:56;;;;;;;3.63;1.13;;;;;;;13.52;100.00;99227.50;7391725;19;20025;-77
2023/07/02 04:11:22;;;;;;;6.82;1.35;;;;;;;13.09;100.00;99238.22;7391397;19;20022;-77
2023/07/02 04:13:48;;;;;;;1.08;0.73;;;;;;;13.01;100.00;99231.59;7394697;19;20090;-78
2023/07/02 04:16:15;;;;;;;1.17;0.50;;;;;;;13.47;100.00;99223.44;7391747;19;20335;-78
2023/07/02 04:18:41;;;;;;;3.92;0.47;;;;;;;12.91;100.00;99228.25;7390708;19;20020;-77
2023/07/02 04:21:07;;;;;;;0.80;0.63;;;;;;;19.91;100.00;99215.91;7390454;19;20040;-77
2023/07/02 04:23:33;;;;;;;0.65;0.65;;;;;;;25.85;81.21;99206.94;7392744;19;20034;-77
2023/07/02 04:25:59;;;;;;;4.28;1.58;;;;;;;16.77;100.00;99225.50;7389851;19;20018;-77
2023/07/02 04:28:25;;;;;;;6.10;1.17;;;;;;;14.18;100.00;99229.38;7387957;19;20037;-77
2023/07/02 04:30:52;;;;;;;4.32;1.17;;;;;;;12.81;100.00;99234.59;7391507;19;20026;-77
2023/07/02 04:33:19;;;;;;;6.65;0.73;;;;;;;12.75;100.00;99231.03;7394253;19;20022;-77
2023/07/02 04:35:45;;;;;;;4.30;0.88;;;;;;;12.53;100.00;99231.00;7391463;19;20015;-77
2023/07/02 04:38:12;;;;;;;0.30;0.30;;;;;;;13.54;100.00;99228.53;7389554;19;20574;-77
2023/07/02 04:40:38;;;;;;;0.70;0.50;;;;;;;13.26;100.00;99235.41;7388731;19;20351;-77
2023/07/02 04:43:05;;;;;;;4.78;0.73;;;;;;;12.94;100.00;99237.66;7391031;19;20018;-78
2023/07/02 04:45:36;;;;;;;0.98;0.40;;;;;;;12.92;100.00;99234.63;7388896;19;20002;-77
2023/07/02 04:48:03;;;;;;;;;;;;;;;12.84;100.00;99233.59;7391217;19;20355;-77
2023/07/02 04:50:29;;;;;;;0.20;0.13;;;;;;;13.31;100.00;99229.84;7389700;19;19927;-77
2023/07/02 04:52:56;;;;;;;1.13;0.77;;;;;;;13.38;100.00;99232.09;7398022;19;20014;-77
2023/07/02 04:55:22;;;;;;;2.15;1.30;;;;;;;13.32;100.00;99234.13;7395820;19;20082;-77
2023/07/02 04:57:48;;;;;;;0.85;0.50;;;;;;;13.75;100.00;99231.03;7399658;19;20018;-77
2023/07/02 05:00:14;;;;;;;2.60;0.95;;;;;;;13.81;100.00;99229.75;7396003;19;20364;-77
2023/07/02 05:02:40;;;;;;;5.10;0.98;;;;;;;14.19;100.00;99223.25;7397601;19;20031;-77
2023/07/02 05:05:07;;;;;;;0.88;0.75;;;;;;;14.18;100.00;99216.16;7395429;19;20011;-77
2023/07/02 05:07:33;;;;;;;0.75;0.70;;;;;;;13.99;100.00;99228.44;7395032;19;20089;-77
2023/07/02 05:09:59;;;;;;;1.88;0.77;;;;;;;14.70;100.00;99238.56;7397859;19;20021;-77
2023/07/02 05:12:25;;;;;;;1.73;0.90;;;;;;;14.39;100.00;99233.38;7399133;19;20028;-78
2023/07/02 05:14:51;;;;;;;1.15;0.70;;;;;;;13.38;100.00;99242.53;7398687;19;20017;-77
2023/07/02 05:17:17;;;;;;;0.10;0.10;;;;;;;13.71;100.00;99238.94;7396362;19;20371;-77
2023/07/02 05:19:43;;;;;;;0.40;0.40;;;;;;;13.92;100.00;99240.16;7394753;19;20026;-78
2023/07/02 05:22:10;;;;;;;1.23;0.60;;;;;;;13.67;100.00;99239.97;7397422;19;20587;-78
2023/07/02 05:24:36;;;;;;;0.60;0.60;;;;;;;13.71;100.00;99241.75;7397269;19;20018;-77
2023/07/02 05:27:04;;;;;;;0.28;0.28;;;;;;;13.74;100.00;99246.28;7397078;19;20030;-76
2023/07/02 05:29:30;;;;;;;11.93;0.65;;;;;;;15.56;100.00;99244.56;7397822;19;20424;-77
2023/07/02 05:31:56;;;;;;;3.30;0.60;;;;;;;13.77;100.00;99246.06;7397206;19;20032;-77
2023/07/02 05:34:22;;;;;;;3.67;0.43;;;;;;;13.43;100.00;99259.31;7396994;19;20013;-77
2023/07/02 05:36:48;;;;;;;2.90;1.05;;;;;;;13.27;100.00;99253.72;7396612;19;20019;-77
2023/07/02 05:39:14;;;;;;;0.98;0.57;;;;;;;14.14;100.00;99257.63;7394733;19;20039;-77
2023/07/02 05:41:40;;;;;;;2.97;1.00;;;;;;;13.47;100.00;99265.41;7396888;19;20029;-77
2023/07/02 05:44:06;;;;;;;2.15;0.80;;;;;;;13.35;100.00;99261.09;7401125;19;20018;-77
2023/07/02 05:46:32;;;;;;;8.18;1.42;;;;;;;13.22;100.00;99260.84;7396934;19;20038;-77
2023/07/02 05:48:59;;;;;;;0.57;0.43;;;;;;;12.70;100.00;99268.88;7396282;19;20480;-77
2023/07/02 05:51:25;;;;;;;0.90;0.30;;;;;;;14.07;100.00;99260.22;7396335;19;20018;-77
2023/07/02 05:53:52;;;;;;;1.02;0.30;;;;;;;14.19;100.00;99258.91;7398860;19;20537;-77
2023/07/02 05:56:19;;;;;;;0.80;0.68;;;;;;;14.64;100.00;99260.25;7397556;19;20043;-77
2023/07/02 05:58:48;;;;;;;3.45;0.60;;;;;;;14.33;100.00;99263.47;7394098;19;20044;-77
2023/07/02 06:01:14;;;;;;;1.95;0.93;;;;;;;14.69;100.00;99259.47;7392589;19;20344;-78
2023/07/02 06:03:42;;;;;;;2.88;0.70;;;;;;;14.62;100.00;99260.00;7396030;19;20041;-77
2023/07/02 06:06:08;;;;;;;0.73;0.40;;;;;;;15.08;100.00;99259.97;7392876;19;20104;-77
2023/07/02 06:08:34;;;;;;;0.10;0.10;;;;;;;17.29;100.00;99256.69;7394002;19;20019;-77
2023/07/02 06:11:01;;;;;;;1.65;0.30;;;;;;;14.79;100.00;99260.66;7396351;19;20053;-77
2023/07/02 06:13:27;;;;;;;1.38;0.60;;;;;;;15.11;100.00;99260.97;7398032;19;20010;-77
2023/07/02 06:15:53;;;;;;;3.63;0.95;;;;;;;14.52;100.00;99253.19;7395799;19;20465;-77
2023/07/02 06:18:19;;;;;;;0.68;0.45;;;;;;;14.89;100.00;99259.09;7394543;19;20021;-77
2023/07/02 06:20:46;;;;;;;7.53;0.60;;;;;;;14.17;100.00;99253.03;7392873;19;20405;-77
2023/07/02 06:23:12;;;;;;;2.53;0.43;;;;;;;14.35;100.00;99261.69;7395625;19;20547;-77
2023/07/02 06:25:38;;;;;;;2.78;1.08;;;;;;;14.95;100.00;99268.22;7393063;19;20014;-77
2023/07/02 06:28:04;;;;;;;0.95;0.47;;;;;;;14.95;100.00;99273.06;7392620;19;20029;-77
2023/07/02 06:30:30;;;;;;;9.30;0.70;;;;;;;14.67;100.00;99259.22;7393796;19;20041;-77
2023/07/02 06:32:56;;;;;;;2.50;0.77;;;;;;;14.77;100.00;99274.44;7394485;19;20047;-77
2023/07/02 06:35:22;;;;;;;2.53;0.68;;;;;;;14.64;100.00;99265.09;7395141;19;20047;-77
2023/07/02 06:37:48;;;;;;;11.20;0.57;;;;;;;14.59;100.00;99268.69;7393844;19;20030;-77
2023/07/02 06:40:15;;;;;;;4.25;0.40;;;;;;;14.43;100.00;99267.50;7393251;19;20014;-77
2023/07/02 06:42:41;;;;;;;2.30;0.68;;;;;;;14.53;100.00;99265.91;7394925;19;20498;-77
2023/07/02 06:45:07;;;;;;;0.55;0.15;;;;;;;14.76;100.00;99270.13;7394820;19;20170;-77
2023/07/02 06:47:33;;;;;;;1.80;0.65;;;;;;;15.18;100.00;99275.19;7393710;19;20019;-77
2023/07/02 06:49:59;;;;;;;2.15;0.93;;;;;;;15.29;100.00;99268.00;7392703;19;20010;-77
2023/07/02 06:52:26;;;;;;;1.65;0.52;;;;;;;24.62;80.55;99264.78;7395045;19;20006;-77
2023/07/02 06:54:52;;;;;;;0.98;0.88;;;;;;;17.48;100.00;99278.41;7394884;19;20098;-77
2023/07/02 06:57:18;;;;;;;2.67;0.47;;;;;;;17.96;100.00;99283.72;7396175;19;20018;-77
2023/07/02 06:59:44;;;;;;;3.10;0.47;;;;;;;15.85;100.00;99280.28;7391560;19;20045;-77
2023/07/02 07:02:10;;;;;;;4.18;0.90;;;;;;;15.29;100.00;99290.44;7392337;19;20047;-77
2023/07/02 07:04:36;;;;;;;0.68;0.55;;;;;;;15.03;100.00;99286.00;7394098;19;20498;-77
2023/07/02 07:07:03;;;;;;;7.85;1.00;;;;;;;14.86;100.00;99287.38;7393510;19;20018;-76
2023/07/02 07:09:30;;;;;;;1.88;0.45;;;;;;;14.73;100.00;99284.41;7392123;19;20498;-77
2023/07/02 07:11:56;;;;;;;1.90;0.90;;;;;;;15.38;100.00;99287.28;7392662;19;20086;-77
2023/07/02 07:14:22;;;;;;;2.45;1.25;;;;;;;15.01;100.00;99291.38;7396195;19;20077;-77
2023/07/02 07:16:49;;;;;;;0.52;0.52;;;;;;;15.47;100.00;99289.78;7393938;19;20026;-77
2023/07/02 07:19:16;;;;;;;0.50;0.35;;;;;;;15.45;100.00;99286.75;7390566;19;20014;-76
2023/07/02 07:21:43;;;;;;;0.75;0.40;;;;;;;16.10;100.00;99295.06;7393807;19;20026;-77
2023/07/02 07:24:09;;;;;;;0.95;0.30;;;;;;;16.02;100.00;99289.28;7397136;19;20010;-77
2023/07/02 07:26:35;;;;;;;0.82;0.50;;;;;;;16.31;100.00;99296.88;7393477;19;20078;-76
2023/07/02 07:29:03;;;;;;;3.00;0.57;;;;;;;15.88;100.00;99285.59;7393675;19;20014;-77
2023/07/02 07:31:29;;;;;;;3.00;0.47;;;;;;;16.03;100.00;99290.03;7392826;19;20011;-78
2023/07/02 07:33:55;;;;;;;1.13;0.35;;;;;;;16.08;100.00;99298.41;7395991;19;20481;-77
2023/07/02 07:36:22;;;;;;;1.40;0.77;;;;;;;16.19;100.00;99298.28;7393219;19;20043;-77
2023/07/02 07:38:48;;;;;;;0.32;0.22;;;;;;;16.48;100.00;99291.81;7391183;19;20408;-77
2023/07/02 07:41:14;;;;;;;0.30;0.17;;;;;;;16.41;100.00;99305.72;7391006;19;20023;-77
2023/07/02 07:43:40;;;;;;;0.77;0.35;;;;;;;16.49;100.00;99298.97;7393011;19;20018;-76
2023/07/02 07:46:07;;;;;;;0.77;0.38;;;;;;;17.29;100.00;99301.72;7390120;19;20014;-77
2023/07/02 07:48:33;;;;;;;0.60;0.30;;;;;;;17.43;100.00;99294.09;7391231;19;20370;-78
2023/07/02 07:50:59;;;;;;;0.30;0.28;;;;;;;16.85;100.00;99307.22;7393071;19;20018;-78
2023/07/02 07:53:25;;;;;;;2.67;0.10;;;;;;;17.14;100.00;99300.66;7394799;19;20094;-78
2023/07/02 07:55:51;;;;;;;2.50;1.00;;;;;;;18.51;100.00;99304.47;7392293;19;20363;-78
2023/07/02 07:58:17;;;;;;;1.20;0.52;;;;;;;17.29;100.00;99306.56;7395533;19;20086;-78
2023/07/02 08:00:44;;;;;;;1.67;0.47;;;;;;;17.75;100.00;99308.94;7390585;19;20040;-78
2023/07/02 08:03:10;;;;;;;3.45;0.57;;;;;;;17.68;100.00;99315.19;7392792;19;20018;-77
2023/07/02 08:05:36;;;;;;;1.33;0.10;;;;;;;18.23;100.00;99302.16;7391149;19;20025;-78
2023/07/02 08:08:03;;;;;;;3.45;0.50;;;;;;;17.56;100.00;99308.22;7390193;19;20030;-78
2023/07/02 08:10:29;;;;;;;0.47;0.10;;;;;;;18.43;100.00;99284.56;7392113;19;20353;-78
2023/07/02 08:12:55;;;;;;;2.92;0.57;;;;;;;17.55;100.00;99295.44;7392572;19;20010;-78
2023/07/02 08:15:22;;;;;;;0.52;0.40;;;;;;;16.61;100.00;99294.00;7388721;19;20477;-77
2023/07/02 08:17:48;;;;;;;2.25;0.40;;;;;;;16.43;100.00;99295.47;7391647;19;20038;-77
2023/07/02 08:20:14;;;;;;;4.47;0.45;;;;;;;17.74;100.00;99301.75;7390947;19;20014;-77
2023/07/02 08:22:41;;;;;;;0.95;0.63;;;;;;;18.14;100.00;99305.41;7392561;19;20022;-77
2023/07/02 08:25:07;;;;;;;3.35;0.82;;;;;;;18.56;100.00;99295.88;7390796;19;20010;-77
2023/07/02 08:27:34;;;;;;;13.55;0.90;;;;;;;19.09;100.00;99290.88;7392739;19;20090;-78
2023/07/02 08:30:00;;;;;;;12.73;1.08;;;;;;;19.20;100.00;99295.50;7392140;19;20018;-78
2023/07/02 08:32:27;;;;;;;0.70;0.45;;;;;;;20.34;100.00;99289.53;7392637;19;20018;-77
2023/07/02 08:34:53;;;;;;;0.25;0.20;;;;;;;20.42;100.00;99287.53;7394092;19;20336;-78
2023/07/02 08:37:20;;;;;;;0.98;0.40;;;;;;;20.65;96.48;99285.56;7395166;19;20477;-78
2023/07/02 08:39:48;;;;;;;3.90;0.43;;;;;;;20.41;97.75;99291.66;7391365;19;20073;-78
2023/07/02 08:42:14;;;;;;;1.85;0.40;;;;;;;21.04;90.86;99296.50;7391553;19;20019;-77
2023/07/02 08:44:42;;;;;;;4.32;0.10;;;;;;;21.70;79.57;99293.59;7394239;19;20070;-78
2023/07/02 08:47:09;;;;;;;0.22;0.20;;;;;;;19.47;100.00;99299.75;7388573;19;20028;-78
2023/07/02 08:49:35;;;;;;;0.10;0.10;;;;;;;21.29;94.27;99310.16;7391556;19;20044;-78
2023/07/02 08:52:01;;;;;;;6.05;0.68;;;;;;;22.04;87.81;99304.59;7391682;19;20402;-78
2023/07/02 08:54:27;;;;;;;3.55;0.40;;;;;;;19.41;99.01;99302.72;7392937;19;20527;-78
2023/07/02 08:56:54;;;;;;;10.60;0.35;;;;;;;19.56;94.17;99288.75;7392092;19;20027;-78
2023/07/02 08:59:20;;;;;;;4.40;0.43;;;;;;;18.95;100.00;99297.84;7389264;19;20030;-77
2023/07/02 09:01:51;;;;;;;1.35;0.55;;;;;;;18.40;100.00;99301.84;7389538;19;20015;-78
2023/07/02 09:04:17;;;;;;;0.30;0.13;;;;;;;18.65;100.00;99303.13;7394382;19;20029;-77
2023/07/02 09:06:43;;;;;;;2.45;0.35;;;;;;;19.23;100.00;99295.16;7388840;19;20014;-78
2023/07/02 09:09:09;;;;;;;3.55;0.43;;;;;;;19.16;100.00;99303.56;7389835;19;20014;-77
2023/07/02 09:11:47;;;;;;;0.20;0.10;;;;;;;18.28;100.00;99304.09;7390733;19;20019;-77
2023/07/02 09:14:24;;;;;;;1.55;0.43;;;;;;;19.32;100.00;99303.16;7389349;19;20014;-78
2023/07/02 09:17:04;;;;;;;0.13;0.10;;;;;;;18.70;100.00;99305.84;7394007;19;20082;-77
2023/07/02 09:19:31;;;;;;;0.95;0.25;;;;;;;18.57;100.00;99305.09;7389194;19;20384;-77
2023/07/02 09:22:01;;;;;;;4.18;0.70;;;;;;;19.76;100.00;99289.28;7390590;19;20007;-78
2023/07/02 09:24:32;;;;;;;0.45;0.30;;;;;;;20.81;98.83;99289.22;7388606;19;20014;-78
2023/07/02 09:27:00;;;;;;;6.93;0.30;;;;;;;20.63;98.25;99282.53;7388811;19;20117;-78
2023/07/02 09:29:33;;;;;;;1.90;0.20;;;;;;;19.49;100.00;99278.13;7390514;19;20011;-78
2023/07/02 09:32:01;;;;;;;3.03;0.45;;;;;;;20.17;100.00;99275.06;7390203;19;20070;-78
2023/07/02 09:34:31;;;;;;;1.40;0.35;;;;;;;20.31;100.00;99279.34;7388141;19;20011;-78
2023/07/02 09:36:59;;;;;;;0.30;0.05;;;;;;;20.07;100.00;99274.06;7391230;19;20014;-78
2023/07/02 09:39:32;;;;;;;0.95;0.28;;;;;;;19.98;100.00;99266.09;7396907;19;20331;-78
2023/07/02 09:42:02;;;;;;;0.15;0.10;;;;;;;23.16;88.62;99256.53;7397863;19;20511;-78
2023/07/02 09:44:30;;;;;;;7.28;0.80;;;;;;;21.21;95.13;99269.72;7396324;19;20481;-78
2023/07/02 09:46:58;;;;;;;0.43;0.38;;;;;;;21.02;95.18;99259.47;7394687;19;20031;-78
2023/07/02 09:49:26;;;;;;;0.57;0.10;;;;;;;22.00;91.27;99258.09;7395153;19;20026;-78
2023/07/02 09:51:53;;;;;;;4.80;0.15;;;;;;;21.61;87.48;99262.22;7397715;19;20413;-78
2023/07/02 09:54:20;;;;;;;3.45;0.30;;;;;;;22.32;79.92;99261.81;7396080;19;20014;-78
2023/07/02 09:56:47;;;;;;;5.07;0.40;;;;;;;21.67;89.03;99266.38;7397633;19;20096;-78
2023/07/02 09:59:14;;;;;;;0.60;0.30;;;;;;;24.98;69.76;99252.75;7395523;19;20462;-78
2023/07/02 10:01:40;;;;;;;2.33;0.30;;;;;;;23.59;73.38;99264.59;7395972;19;20022;-78
2023/07/02 10:04:12;;;;;;;0.20;0.10;;;;;;;23.11;74.08;99260.34;7398775;19;20014;-78
2023/07/02 10:06:56;;;;;;;4.03;0.50;;;;;;;21.78;80.98;99253.91;7396868;19;20025;-78
2023/07/02 10:09:37;;;;;;;5.88;0.60;;;;;;;21.82;80.10;99265.63;7396232;19;20031;-78
2023/07/02 10:12:20;;;;;;;0.50;0.10;;;;;;;23.55;65.84;99257.81;7396130;19;20022;-77
2023/07/02 10:14:48;;;;;;;0.30;0.20;;;;;;;22.41;70.07;99269.72;7399340;19;20012;-78
2023/07/02 10:17:28;;;;;;;1.80;0.57;;;;;;;21.60;71.65;99281.31;7395036;19;20018;-77
2023/07/02 10:19:56;;;;;;;1.65;0.47;;;;;;;25.13;62.48;99253.28;7394142;19;20018;-78
2023/07/02 10:22:22;;;;;;;0.75;0.75;;;;;;;26.18;55.08;99264.41;7394356;19;20018;-77
2023/07/02 10:25:05;;;;;;;2.47;0.20;;;;;;;23.88;60.91;99268.53;7396140;19;20018;-78
2023/07/02 10:27:39;;;;;;;0.10;0.00;;;;;;;23.95;57.54;99262.00;7393390;19;20010;-77
2023/07/02 10:30:08;;;;;;;0.77;0.20;;;;;;;23.77;58.73;99268.25;7394122;19;20029;-77
2023/07/02 10:32:35;;;;;;;0.68;0.20;;;;;;;21.30;68.67;99272.78;7395017;19;20022;-78
2023/07/02 10:35:18;;;;;;;0.15;0.10;;;;;;;22.93;69.02;99270.13;7396408;19;20030;-78
2023/07/02 10:37:45;;;;;;;1.27;0.50;;;;;;;24.02;57.21;99261.19;7393723;19;20338;-78
2023/07/02 10:40:12;;;;;;;4.55;0.63;;;;;;;20.00;75.88;99266.28;7392990;19;20021;-78
2023/07/02 10:42:45;;;;;;;0.17;0.17;;;;;;;19.36;78.01;99264.06;7395520;19;20053;-77
2023/07/02 10:45:11;;;;;;;0.30;0.30;;;;;;;21.83;72.17;99261.47;7392802;19;20486;-77
2023/07/02 10:47:41;;;;;;;0.47;0.10;;;;;;;33.26;42.00;99246.78;7396656;19;20064;-77
2023/07/02 10:50:18;;;;;;;2.33;0.30;;;;;;;25.32;54.79;99253.38;7395226;19;20015;-78
2023/07/02 10:52:45;;;;;;;0.30;0.10;;;;;;;25.56;49.91;99251.72;7395116;19;20030;-77
2023/07/02 10:55:22;;;;;;;0.45;0.22;;;;;;;22.82;56.92;99262.03;7394168;19;20525;-78
2023/07/02 10:57:52;;;;;;;3.92;1.25;;;;;;;22.66;59.41;99260.56;7396849;19;20011;-77
2023/07/02 11:00:19;;;;;;;2.55;0.68;;;;;;;22.14;66.54;99253.69;7392953;19;20046;-78
2023/07/02 11:02:45;;;;;;;3.50;0.85;;;;;;;22.70;67.38;99246.75;7394164;19;20426;-78
2023/07/02 11:05:12;;;;;;;1.75;0.30;;;;;;;23.23;60.96;99244.38;7393520;19;20011;-78
2023/07/02 11:07:42;;;;;;;5.38;1.17;;;;;;;22.44;68.57;99257.22;7393269;19;20022;-78
2023/07/02 11:10:09;;;;;;;5.57;0.30;;;;;;;27.24;59.68;99245.09;7395076;19;20049;-78
2023/07/02 11:12:36;;;;;;;1.70;0.10;;;;;;;23.42;56.36;99244.66;7392157;19;20341;-77
2023/07/02 11:15:13;;;;;;;1.10;0.47;;;;;;;22.17;62.20;99241.97;7392567;19;20029;-78
2023/07/02 11:17:41;;;;;;;1.45;0.30;;;;;;;21.22;68.98;99245.75;7393573;19;20007;-78
2023/07/02 11:20:11;;;;;;;2.85;0.73;;;;;;;22.71;66.71;99251.84;7390071;19;20006;-78
2023/07/02 11:22:38;;;;;;;4.80;0.38;;;;;;;23.52;60.46;99239.09;7395421;19;20612;-77
2023/07/02 11:25:12;;;;;;;1.85;0.20;;;;;;;30.36;49.50;99231.25;7393766;19;20090;-77
2023/07/02 11:27:38;;;;;;;0.60;0.15;;;;;;;24.30;55.41;99247.88;7392683;19;20111;-78
2023/07/02 11:30:05;;;;;;;0.85;0.10;;;;;;;25.75;50.70;99233.94;7393534;19;20461;-78